Florence, Wisconsin
Current Conditions -  °F | °C
As of 5:54 PM on Monday 20 Oct 2014 (Local Time) from KIMT Reporting Station
Overcast Overcast  
Wind Chill: 41°   Ceiling: 5500
Heat Index: 46°   Visibility: 10mi
Dew Point: 38°   Wind: 9mph
Humidity: 73%   Direction: 340°NNW
Pressure: 29.96"   Gusts: NA
Location:  45.92°N, 88.25°W
Report Text: KIMT 202254Z AUTO 34008KT 10SM FEW026 OVC055 08/03 A2996 RMK AO2 SLP152 T00780033
Loading
Personal Weather Stations






























Interactive Weather Map
Tropical Storm Tracking
New forecast layout! Learn more

10-Day Weather Forecast

Advertisements
Track Severe Weather on mobile